West Brevoort - northern half: Past 24 Hour Conditions

 

Baker Lake Airport

11:00 PM CDT 23 April 2014
This table is a summary of hourly weather conditions for the past 24 hours.
Date / Time
(CDT)
Wind(knots) Conditions Visibility(km) Pressure(kPa) Air tempC) Relative humidity(%) Dew pointC) Wind Chill
23 April 2014
23:00 WNW 9 Mainly Clear 24 103.2 -17 80 -20 -26
22:00 WSW 8 Mainly Clear 32 103.2 -16 80 -19 -24
21:00 WNW 8 Mainly Sunny 32 103.1 -15 78 -18 -23
20:00 WNW 6 Sunny 32 103.2 -14 75 -17 -20
19:00 W 3 Sunny 32 103.2 -13 72 -17 -17
18:00 WNW 10 Sunny 32 103.2 -13 70 -18 -21
17:00 NW 6 Sunny 32 103.2 -13 67 -18 -19
16:00 NW 12 Sunny 32 103.1 -13 72 -17 -22
15:00 NNW 13 Sunny 32 103.1 -13 72 -17 -23
14:00 NNW 14 Sunny 32 103.1 -14 72 -18 -25
13:00 NNW 16 Sunny 32 103.0 -15 72 -19 -26
12:00 NNW 17 Sunny 32 103.0 -16 73 -20 -28
11:00 NW 19 Mainly Sunny 24 103.0 -17 75 -21 -30
10:00 NW 15 Mainly Sunny 32 103.0 -19 74 -22 -30
9:00 NW 17 Mainly Sunny 32 102.9 -19 75 -22 -32
8:00 NW 13 Partly Cloudy 32 102.9 -20 76 -23 -31
7:00 NNW 18 Partly Cloudy 32 102.9 -20 77 -23 -33
6:00 NW 17 Partly Cloudy 32 102.8 -20 79 -23 -33
5:00 NW 5 Partly Cloudy 24 102.8 -20 79 -22 -27
4:00 NW 5 Partly Cloudy 24 102.8 -19 79 -22 -25
3:00 NNW 18 Mainly Clear 24 102.7 -18 81 -20 -31
2:00 NNW 19 Partly Cloudy 24 102.6 -17 81 -20 -30
1:00 NNW 12 Light Snow 24 102.6 -16 82 -19 -26
0:00 N 12 Light Snow 24 102.6 -15 80 -18 -24
22 April 2014
23:00 NNW 14 Light Snow 24 102.6 -15 81 -17 -25
 
Map of Arctic - Eastern Arctic marine weather areas Baker Lake Airport Chesterfield Inlet Airport Coral Harbour Airport Gjoa Haven Airport Kugaaruk Airport Rankin Inlet Airport Shepherd Bay Airport Whale Cove Airport Arctic Bay Brevoort Island Qikiqtarjuaq Airport Cape Dorset Airport Cape Dyer Cape Hooper Clyde Airport Grise Fiord Airport Hall Beach Airport Igloolik Airport Iqaluit Airport Longstaff Bluff Pangnirtung Airport Pond Inlet Airport Repulse Bay Airport Resolute Airport Resolution Island Rowley Island Airport Taloyoak Airport Wager Bay Akulivik Airport Ivujivik Airport Puvirnituq Airport Kangiqsujuaq Airport Kangirsuk Airport Quaqtaq Airport Tasiujaq Airport Cape Kakkiviak Cape Kiglapait Nain Airport Saglek Cape Mercy Kimmirut Airport Aupaluk Airport Salluit Airport Kangiqsualujjuaq Airport Fort Ross
Legend: buoyBuoy land stationLand Station